UWWW

Kurumoch International Airport

Samara, Russian Federation
TAF AMD UWWW 251805Z 2518/2618 19009G16MPS 5000 -RA BR BKN011 OVC100 TX13/2612Z TN09/2601Z TEMPO 2518/2606 25003G08MPS 2100 -SHRA BR OVC003 BKN011CB FM260600 26005G11MPS 9999 BKN015 OVC100 TEMPO 2606/2615 30008G13MPS 3100 -SHRA BKN011CB OVC100
Issued Valid From Valid To
Sep-25 @ 18:05 UTC
(57 minutes ago)
Sep-25 @ 18:00 UTC
(an hour ago)
Sep-26 @ 18:00 UTC
(in 23 hours)
Sep-25 @ 18:00 to Sep-26 @ 06:00
TAF AMD UWWW 251805Z 2518/2618 19009G16MPS 5000 -RA BR BKN011 OVC100 TX13/2612Z TN09/2601Z
Wind Visibility Clouds Conditions
190° at 17 knots
 Gusting to 31 knots
5,005 meters
  • Broken at 1,100' AGL
  • Overcast at 10,000' AGL
  • Light Rain
  • Mist
Temporary Sep-25 @ 18:00 to Sep-26 @ 06:00
TEMPO 2518/2606 25003G08MPS 2100 -SHRA BR OVC003 BKN011CB
Wind Visibility Clouds Conditions
250° at 6 knots
 Gusting to 16 knots
2,092 meters
  • Overcast at 300' AGL
  • Broken at 1,100' AGL
  • Light Rain
  • Mist
Temporary Sep-26 @ 06:00 to Sep-26 @ 15:00
TEMPO 2606/2615 30008G13MPS 3100 -SHRA BKN011CB OVC100
Wind Visibility Clouds Conditions
300° at 16 knots
 Gusting to 25 knots
3,106 meters
  • Broken at 1,100' AGL
  • Overcast at 10,000' AGL
  • Light Rain
From Sep-26 @ 06:00 to Sep-26 @ 18:00
FM260600 26005G11MPS 9999 BKN015 OVC100
Wind Visibility Clouds
260° at 10 knots
 Gusting to 21 knots
10,000+ meters
  • Broken at 1,500' AGL
  • Overcast at 10,000' AGL
TAF AMD UWWW 251805Z 2518/2618 19009G16MPS 5000 -RA BR BKN011 OVC100 TX13/2612Z TN09/2601Z TEMPO 2518/2606 25003G08MPS 2100 -SHRA BR OVC003 BKN011CB FM260600 26005G11MPS 9999 BKN015 OVC100 TEMPO 2606/2615 30008G13MPS 3100 -SHRA BKN011CB OVC100
Issued Sep-25 @ 18:05 UTC
(57 minutes ago)
Valid From Sep-25 @ 18:00 UTC
(an hour ago)
Valid To Sep-26 @ 18:00 UTC
(in 23 hours)
Sep-25 @ 18:00 - Sep-26 @ 06:00
Wind Visibility
190° at 17 knots
 Gusting to 31 knots
5,005 meters
Clouds
  • Broken at 1,100' AGL
  • Overcast at 10,000' AGL
Conditions
  • Light Rain
  • Mist
Temporary Sep-25 @ 18:00 - Sep-26 @ 06:00
Wind Visibility
250° at 6 knots
 Gusting to 16 knots
2,092 meters
Clouds
  • Overcast at 300' AGL
  • Broken at 1,100' AGL
Conditions
  • Light Rain
  • Mist
Temporary Sep-26 @ 06:00 - Sep-26 @ 15:00
Wind Visibility
300° at 16 knots
 Gusting to 25 knots
3,106 meters
Clouds
  • Broken at 1,100' AGL
  • Overcast at 10,000' AGL
Conditions
  • Light Rain
From Sep-26 @ 06:00 - Sep-26 @ 18:00
Wind Visibility
260° at 10 knots
 Gusting to 21 knots
10,000+ meters
Clouds
  • Broken at 1,500' AGL
  • Overcast at 10,000' AGL